Time;durP1;ratioP1;P1;durP2;ratioP2;P2;SDS_P1;SDS_P2;PMS_P1;PMS_P2;Temp;Humidity;BMP_temperature;BMP_pressure;BME280_temperature;BME280_humidity;BME280_pressure;Samples;Min_cycle;Max_cycle;Signal;HPM_P1;HPM_P2
2022/09/18 00:01:31;;;;;;;1.73;1.40;;;;;;;23.04;43.86;100740.25;5094757;28;20055;-74
2022/09/18 00:04:01;;;;;;;2.97;1.30;;;;;;;23.03;44.03;100738.56;5094105;28;20048;-75
2022/09/18 00:06:33;;;;;;;1.88;1.27;;;;;;;23.04;43.90;100740.25;5094128;28;20055;-75
2022/09/18 00:09:02;;;;;;;2.45;1.38;;;;;;;23.05;43.58;100732.97;5094419;28;20051;-75
2022/09/18 00:11:38;;;;;;;4.20;1.27;;;;;;;23.06;43.73;100740.09;5093978;28;20044;-75
2022/09/18 00:14:08;;;;;;;2.47;1.55;;;;;;;23.06;43.51;100746.34;5094060;28;20048;-75
2022/09/18 00:16:35;;;;;;;2.45;1.33;;;;;;;23.05;43.58;100749.19;5094546;28;20044;-75
2022/09/18 00:19:04;;;;;;;1.98;1.48;;;;;;;23.05;43.72;100747.34;5092838;28;20044;-75
2022/09/18 00:21:34;;;;;;;1.75;1.40;;;;;;;23.05;43.53;100744.66;5093738;28;20048;-75
2022/09/18 00:24:03;;;;;;;2.88;1.38;;;;;;;23.05;43.38;100749.19;5094490;28;20044;-75
2022/09/18 00:26:32;;;;;;;1.98;1.30;;;;;;;23.05;43.69;100749.19;5093654;28;20044;-75
2022/09/18 00:28:59;;;;;;;2.33;1.50;;;;;;;23.04;43.69;100751.03;5092457;28;20048;-75
2022/09/18 00:31:29;;;;;;;2.03;1.20;;;;;;;23.05;43.68;100755.47;5093173;28;20048;-75
2022/09/18 00:33:59;;;;;;;1.77;1.20;;;;;;;23.07;43.97;100758.00;5092201;28;20078;-75
2022/09/18 00:36:27;;;;;;;2.20;1.50;;;;;;;23.06;43.67;100748.19;5092925;28;20044;-75
2022/09/18 00:38:55;;;;;;;3.85;1.83;;;;;;;23.05;43.89;100750.06;5092291;28;20058;-74
2022/09/18 00:41:26;;;;;;;6.03;1.92;;;;;;;23.06;43.97;100746.34;5092232;28;20052;-75
2022/09/18 00:44:15;;;;;;;2.78;1.65;;;;;;;23.05;44.06;100743.78;5093829;28;20071;-75
2022/09/18 00:46:44;;;;;;;2.78;1.70;;;;;;;23.05;44.29;100744.66;5093735;28;20040;-75
2022/09/18 00:49:25;;;;;;;3.33;1.45;;;;;;;23.06;44.47;100745.50;5092965;28;20044;-75
2022/09/18 00:51:56;;;;;;;2.30;1.55;;;;;;;23.06;44.44;100746.34;5093872;28;20044;-75
2022/09/18 00:54:33;;;;;;;3.35;1.52;;;;;;;23.05;44.28;100739.25;5093806;28;20048;-75
2022/09/18 00:57:10;;;;;;;2.00;1.33;;;;;;;23.06;44.52;100745.50;5093226;28;20388;-75
2022/09/18 00:59:41;;;;;;;2.50;1.50;;;;;;;23.06;44.46;100746.34;5092574;28;20055;-75
2022/09/18 01:02:09;;;;;;;3.78;1.50;;;;;;;23.06;44.31;100750.91;5094041;28;20048;-75
2022/09/18 01:04:37;;;;;;;1.65;1.27;;;;;;;23.06;44.56;100750.91;5096107;28;20052;-75
2022/09/18 01:07:30;;;;;;;2.55;1.40;;;;;;;23.05;44.52;100752.75;5097882;28;20048;-75
2022/09/18 01:10:04;;;;;;;2.00;1.40;;;;;;;23.05;44.58;100750.06;5078367;28;20059;-74
2022/09/18 01:12:38;;;;;;;3.50;1.83;;;;;;;23.06;44.48;100745.50;5095823;28;20059;-75
2022/09/18 01:15:22;;;;;;;2.17;1.30;;;;;;;23.04;44.55;100745.63;5095681;28;20056;-75
2022/09/18 01:18:15;;;;;;;2.25;1.50;;;;;;;23.07;44.80;100749.88;5095353;28;20058;-74
2022/09/18 01:21:10;;;;;;;2.87;1.43;;;;;;;23.06;44.74;100748.19;5096229;28;20048;-74
2022/09/18 01:24:05;;;;;;;2.90;1.40;;;;;;;23.05;44.76;100744.66;5097326;28;20052;-75
2022/09/18 01:26:53;;;;;;;1.92;1.30;;;;;;;23.06;44.65;100746.34;5096908;28;20047;-74
2022/09/18 01:29:21;;;;;;;2.67;1.38;;;;;;;23.06;45.00;100757.16;5095596;28;20052;-74
2022/09/18 01:31:59;;;;;;;2.95;1.70;;;;;;;23.06;44.68;100753.59;5096291;28;20063;-75
2022/09/18 01:34:37;;;;;;;3.13;1.60;;;;;;;23.06;44.87;100754.44;5095401;28;20059;-75
2022/09/18 01:37:27;;;;;;;3.35;1.30;;;;;;;23.06;44.97;100756.31;5095259;28;20048;-75
2022/09/18 01:40:20;;;;;;;2.22;1.67;;;;;;;23.06;45.10;100756.31;5095465;28;20052;-74
2022/09/18 01:42:49;;;;;;;4.15;1.90;;;;;;;23.07;45.16;100753.44;5095324;28;20052;-75
2022/09/18 01:45:26;;;;;;;2.30;1.35;;;;;;;23.06;44.99;100754.44;5095150;28;20056;-75
2022/09/18 01:47:58;;;;;;;2.53;1.20;;;;;;;23.06;45.00;100748.19;5095089;28;20051;-75
2022/09/18 01:50:31;;;;;;;1.60;1.20;;;;;;;23.06;44.89;100748.19;5096709;28;20043;-74
2022/09/18 01:53:08;;;;;;;2.28;1.60;;;;;;;23.06;44.81;100749.03;5095702;28;20048;-75
2022/09/18 01:55:38;;;;;;;1.48;1.13;;;;;;;23.06;44.50;100749.03;5094863;28;20526;-75
2022/09/18 01:58:16;;;;;;;2.03;1.30;;;;;;;23.06;44.97;100750.91;5095300;28;20051;-75
2022/09/18 02:00:50;;;;;;;2.92;1.88;;;;;;;23.06;44.34;100751.75;5095010;28;20059;-75
2022/09/18 02:03:33;;;;;;;2.00;1.50;;;;;;;23.05;44.26;100750.06;5095117;28;20078;-75
2022/09/18 02:06:15;;;;;;;2.05;1.55;;;;;;;23.05;44.30;100752.75;5095978;28;20047;-75
2022/09/18 02:08:44;;;;;;;1.80;1.50;;;;;;;23.05;44.30;100752.75;5096472;28;20051;-75
2022/09/18 02:11:15;;;;;;;2.35;1.33;;;;;;;23.05;43.86;100755.47;5094674;28;20284;-75
2022/09/18 02:13:53;;;;;;;2.10;1.50;;;;;;;23.05;44.01;100758.16;5094738;28;20052;-75
2022/09/18 02:16:29;;;;;;;2.78;1.50;;;;;;;23.05;43.84;100755.47;5094527;28;20044;-75
2022/09/18 02:19:04;;;;;;;2.40;1.70;;;;;;;23.04;43.94;100753.75;5094600;28;20044;-75
2022/09/18 02:21:35;;;;;;;2.50;1.50;;;;;;;23.05;43.76;100758.16;5096148;28;20130;-75
2022/09/18 02:24:08;;;;;;;2.00;1.60;;;;;;;23.05;43.53;100757.28;5095601;28;20059;-75
2022/09/18 02:26:41;;;;;;;1.95;1.27;;;;;;;23.03;43.40;100757.44;5095141;28;20403;-75
2022/09/18 02:29:11;;;;;;;4.85;1.67;;;;;;;23.04;43.65;100751.03;5094709;28;20059;-74
2022/09/18 02:31:39;;;;;;;3.25;1.75;;;;;;;23.05;43.48;100754.59;5094528;28;20052;-75
2022/09/18 02:34:08;;;;;;;2.33;1.33;;;;;;;23.04;43.53;100753.75;5094372;28;20052;-75
2022/09/18 02:36:53;;;;;;;2.95;1.73;;;;;;;23.04;43.61;100751.03;5094329;28;20063;-75
2022/09/18 02:39:36;;;;;;;1.92;1.50;;;;;;;23.03;43.53;100752.06;5096186;28;20372;-75
2022/09/18 02:42:15;;;;;;;2.15;1.38;;;;;;;23.04;43.26;100747.50;5094882;28;20460;-75
2022/09/18 02:44:56;;;;;;;3.55;1.83;;;;;;;23.04;43.56;100752.91;5094094;28;20070;-75
2022/09/18 02:47:37;;;;;;;3.70;1.40;;;;;;;23.03;43.17;100752.06;5094737;28;20055;-75
2022/09/18 02:50:23;;;;;;;1.98;1.50;;;;;;;23.03;42.95;100762.84;5077860;28;20052;-75
2022/09/18 02:53:06;;;;;;;3.80;1.75;;;;;;;23.03;42.80;100757.44;5095301;28;20055;-75
2022/09/18 02:55:43;;;;;;;2.00;1.38;;;;;;;23.03;43.34;100754.75;5094317;28;20055;-75
2022/09/18 02:58:28;;;;;;;1.63;1.20;;;;;;;23.01;42.90;100754.09;5094517;28;20048;-75
2022/09/18 03:00:59;;;;;;;2.05;1.45;;;;;;;23.03;42.95;100759.31;5094177;28;20055;-74
2022/09/18 03:03:30;;;;;;;2.25;1.55;;;;;;;23.02;42.95;100758.47;5093655;28;20514;-75
2022/09/18 03:06:01;;;;;;;3.25;1.27;;;;;;;23.02;43.14;100754.94;5094466;28;20055;-75
2022/09/18 03:08:32;;;;;;;1.80;1.48;;;;;;;23.02;42.89;100757.63;5093217;28;20061;-74
2022/09/18 03:10:59;;;;;;;2.47;1.50;;;;;;;23.01;42.95;100756.78;5093600;28;20059;-74
2022/09/18 03:13:27;;;;;;;2.00;1.45;;;;;;;23.01;42.78;100762.19;5093241;28;20056;-74
2022/09/18 03:15:55;;;;;;;1.80;1.20;;;;;;;23.02;42.71;100757.63;5093795;28;20063;-74
2022/09/18 03:18:25;;;;;;;2.55;1.40;;;;;;;22.99;42.99;100756.06;5094450;28;20400;-73
2022/09/18 03:20:55;;;;;;;2.03;1.30;;;;;;;23.01;42.82;100767.59;5094089;28;20044;-73
2022/09/18 03:23:22;;;;;;;1.73;1.23;;;;;;;23.01;42.95;100758.59;5092963;28;20044;-74
2022/09/18 03:25:56;;;;;;;2.20;1.30;;;;;;;23.01;42.99;100766.72;5093604;28;20052;-74
2022/09/18 03:28:23;;;;;;;2.03;1.17;;;;;;;23.01;43.32;100764.88;5092705;28;20059;-74
2022/09/18 03:30:51;;;;;;;3.05;1.33;;;;;;;23.02;42.80;100768.41;5093314;28;20048;-74
2022/09/18 03:33:19;;;;;;;2.20;1.40;;;;;;;23.00;43.07;100763.16;5092725;28;20044;-74
2022/09/18 03:35:46;;;;;;;3.30;1.25;;;;;;;23.00;42.97;100773.97;5094565;28;20055;-74
2022/09/18 03:38:14;;;;;;;1.55;1.35;;;;;;;23.01;42.99;100777.50;5093410;28;20051;-74
2022/09/18 03:40:44;;;;;;;2.35;1.20;;;;;;;23.01;43.45;100772.97;5093119;28;20052;-74
2022/09/18 03:43:14;;;;;;;1.83;1.00;;;;;;;23.01;43.43;100772.97;5093046;28;20414;-74
2022/09/18 03:45:42;;;;;;;2.65;1.20;;;;;;;23.03;43.41;100778.22;5093187;28;20048;-74
2022/09/18 03:48:09;;;;;;;2.45;1.15;;;;;;;23.03;43.15;100775.50;5092519;28;20051;-73
2022/09/18 03:50:36;;;;;;;2.65;1.08;;;;;;;23.02;42.98;100780.06;5092759;28;20048;-75
2022/09/18 03:53:07;;;;;;;3.40;1.52;;;;;;;23.02;42.97;100782.75;5092955;28;20052;-73
2022/09/18 03:56:00;;;;;;;4.13;1.25;;;;;;;23.02;43.37;100774.66;5093570;28;20090;-74
2022/09/18 03:58:56;;;;;;;1.95;1.38;;;;;;;23.01;42.34;100781.09;5094535;28;20051;-74
2022/09/18 04:01:39;;;;;;;2.50;1.50;;;;;;;23.02;42.71;100784.63;5092915;28;20052;-73
2022/09/18 04:04:25;;;;;;;2.22;1.40;;;;;;;23.01;42.55;100781.09;5101489;28;20383;-73
2022/09/18 04:07:07;;;;;;;3.63;1.20;;;;;;;23.01;42.59;100783.78;5101160;28;20376;-74
2022/09/18 04:09:53;;;;;;;2.95;1.33;;;;;;;23.01;42.43;100793.69;5100789;28;20075;-74
2022/09/18 04:12:21;;;;;;;3.60;1.50;;;;;;;23.00;42.49;100795.56;5092622;28;20060;-73
2022/09/18 04:15:03;;;;;;;3.10;1.40;;;;;;;23.00;42.40;100794.72;5092631;28;20484;-73
2022/09/18 04:17:30;;;;;;;4.00;1.30;;;;;;;22.99;42.46;100799.28;5092411;28;20636;-73
2022/09/18 04:19:57;;;;;;;1.83;1.30;;;;;;;23.00;42.39;100805.50;5092540;28;20044;-74
2022/09/18 04:22:24;;;;;;;2.00;1.48;;;;;;;22.99;42.43;100804.69;5092284;28;20051;-73
2022/09/18 04:24:52;;;;;;;3.97;1.10;;;;;;;22.98;42.51;100804.84;5092635;28;20052;-73
2022/09/18 04:27:21;;;;;;;1.70;1.00;;;;;;;22.98;42.55;100802.97;5092129;28;20503;-74
2022/09/18 04:29:49;;;;;;;2.42;1.60;;;;;;;22.97;42.59;100812.09;5092890;28;20052;-74
2022/09/18 04:32:18;;;;;;;3.80;1.40;;;;;;;22.98;42.63;100812.94;5092223;28;20063;-74
2022/09/18 04:34:46;;;;;;;1.85;1.35;;;;;;;22.98;42.61;100807.53;5092214;28;20074;-74
2022/09/18 04:37:13;;;;;;;2.10;1.30;;;;;;;22.97;42.71;100819.31;5092622;28;20052;-73
2022/09/18 04:39:41;;;;;;;2.40;1.50;;;;;;;22.97;43.03;100814.78;5096792;28;20052;-74
2022/09/18 04:42:08;;;;;;;1.85;1.20;;;;;;;22.97;42.77;100816.63;5096538;28;20052;-74
2022/09/18 04:44:37;;;;;;;1.90;1.52;;;;;;;22.97;42.75;100816.63;5096809;28;20056;-74
2022/09/18 04:47:05;;;;;;;1.95;1.40;;;;;;;22.96;42.71;100823.88;5095950;28;20056;-73
2022/09/18 04:49:32;;;;;;;1.88;1.40;;;;;;;22.95;43.03;100823.03;5096161;28;20052;-73
2022/09/18 04:52:00;;;;;;;1.70;1.15;;;;;;;22.96;42.79;100815.78;5095877;28;20062;-73
2022/09/18 04:54:28;;;;;;;2.75;1.30;;;;;;;22.94;43.11;100824.03;5097971;28;20051;-74
2022/09/18 04:56:56;;;;;;;1.80;1.30;;;;;;;22.95;43.23;100827.59;5096257;28;20495;-74
2022/09/18 04:59:24;;;;;;;2.03;1.40;;;;;;;22.95;43.11;100836.53;5096425;28;20055;-74
2022/09/18 05:01:55;;;;;;;2.28;1.40;;;;;;;22.95;42.96;100831.13;5096370;28;20044;-74
2022/09/18 05:04:23;;;;;;;2.25;1.15;;;;;;;22.94;43.27;100836.69;5096264;28;20055;-74
2022/09/18 05:07:13;;;;;;;1.80;1.23;;;;;;;22.95;42.93;100841.94;5098248;28;20055;-73
2022/09/18 05:09:41;;;;;;;2.70;1.50;;;;;;;22.95;42.81;100841.94;5095817;28;20423;-74
2022/09/18 05:12:09;;;;;;;1.90;1.38;;;;;;;22.94;43.07;100847.50;5095815;28;20063;-74
2022/09/18 05:14:37;;;;;;;1.83;1.23;;;;;;;22.93;42.87;100849.34;5097697;28;20043;-74
2022/09/18 05:17:07;;;;;;;1.50;1.10;;;;;;;22.94;42.93;100850.19;5095757;28;20415;-74
2022/09/18 05:19:37;;;;;;;3.53;1.40;;;;;;;22.94;42.93;100861.00;5096510;28;20044;-74
2022/09/18 05:22:20;;;;;;;3.13;1.20;;;;;;;22.93;43.22;100859.31;5095574;28;20060;-74
2022/09/18 05:24:50;;;;;;;2.22;1.40;;;;;;;22.92;42.94;100863.81;5096751;28;20039;-74
2022/09/18 05:27:17;;;;;;;2.65;1.35;;;;;;;22.93;42.90;100864.72;5095524;28;20055;-74
2022/09/18 05:29:49;;;;;;;1.60;1.20;;;;;;;22.92;42.97;100871.09;5096003;28;20439;-74
2022/09/18 05:32:21;;;;;;;1.77;1.30;;;;;;;22.93;42.90;100872.81;5095510;28;20054;-74
2022/09/18 05:34:50;;;;;;;2.03;1.20;;;;;;;22.93;43.19;100878.22;5095704;28;20387;-74
2022/09/18 05:37:17;;;;;;;2.25;1.42;;;;;;;22.92;43.16;100868.38;5095481;28;20400;-74
2022/09/18 05:39:49;;;;;;;2.05;1.23;;;;;;;22.92;42.91;100880.03;5095502;28;20063;-73
2022/09/18 05:42:17;;;;;;;3.67;1.55;;;;;;;22.93;43.17;100883.59;5095518;28;20059;-74
2022/09/18 05:44:44;;;;;;;2.80;1.70;;;;;;;22.91;42.96;100872.09;5095358;28;20055;-73
2022/09/18 05:47:17;;;;;;;2.42;1.40;;;;;;;22.92;42.95;100881.88;5095915;28;20044;-74
2022/09/18 05:49:44;;;;;;;3.50;1.27;;;;;;;22.92;43.06;100887.28;5094349;28;20118;-73
2022/09/18 05:52:12;;;;;;;3.65;1.38;;;;;;;22.91;42.74;100888.28;5095060;28;20056;-73
2022/09/18 05:54:40;;;;;;;1.73;1.30;;;;;;;22.92;42.86;100889.97;5095392;28;20059;-73
2022/09/18 05:57:08;;;;;;;2.05;1.20;;;;;;;22.91;42.94;100886.44;5095470;28;20052;-73
2022/09/18 05:59:36;;;;;;;1.60;1.20;;;;;;;22.93;43.19;100889.00;5095681;28;20051;-73
2022/09/18 06:02:04;;;;;;;1.98;1.27;;;;;;;22.92;43.35;100884.59;5095141;28;20048;-73
2022/09/18 06:04:58;;;;;;;1.50;1.10;;;;;;;22.93;43.65;100894.41;5095009;28;20052;-74
2022/09/18 06:07:25;;;;;;;2.28;1.50;;;;;;;22.94;43.83;100901.50;5094594;28;20052;-73
2022/09/18 06:09:53;;;;;;;1.80;1.50;;;;;;;22.95;43.45;100900.47;5095763;28;20044;-73
2022/09/18 06:12:22;;;;;;;1.67;1.13;;;;;;;22.95;43.18;100900.47;5094512;28;20048;-74
2022/09/18 06:14:50;;;;;;;2.28;1.65;;;;;;;22.94;42.99;100902.34;5078181;28;20067;-74
2022/09/18 06:17:17;;;;;;;1.50;1.10;;;;;;;22.94;43.18;100896.94;5094717;28;20056;-74
2022/09/18 06:19:46;;;;;;;3.38;1.55;;;;;;;22.93;41.84;100905.19;5094732;28;20044;-73
2022/09/18 06:22:13;;;;;;;1.80;1.20;;;;;;;22.92;41.04;100908.88;5094403;28;20047;-73
2022/09/18 06:24:42;;;;;;;1.50;1.00;;;;;;;22.90;41.43;100913.56;5094948;28;20044;-73
2022/09/18 06:27:17;;;;;;;6.30;1.45;;;;;;;22.89;41.40;100914.56;5095131;28;20055;-73
2022/09/18 06:29:45;;;;;;;1.75;1.20;;;;;;;22.88;41.66;100915.56;5094679;28;20044;-73
2022/09/18 06:32:25;;;;;;;2.10;1.20;;;;;;;22.87;41.92;100914.72;5094288;28;20074;-73
2022/09/18 06:34:53;;;;;;;2.88;1.40;;;;;;;22.82;40.40;100913.47;5093829;28;20060;-73
2022/09/18 06:37:21;;;;;;;2.95;1.40;;;;;;;22.65;38.54;100920.56;5093895;28;20059;-73
2022/09/18 06:39:54;;;;;;;3.22;1.20;;;;;;;22.41;37.95;100921.13;5102067;28;20502;-72
2022/09/18 06:42:32;;;;;;;2.70;1.35;;;;;;;22.26;38.46;100920.75;5093999;28;20052;-75
2022/09/18 06:45:12;;;;;;;3.58;1.52;;;;;;;22.10;39.12;100929.44;5094383;28;20048;-74
2022/09/18 06:47:40;;;;;;;2.75;1.98;;;;;;;21.99;39.36;100924.22;5094594;28;20052;-73
2022/09/18 06:50:08;;;;;;;4.22;1.55;;;;;;;21.92;39.17;100933.91;5093586;28;20411;-73
2022/09/18 06:52:36;;;;;;;1.77;1.38;;;;;;;21.84;39.03;100939.19;5094123;28;20052;-73
2022/09/18 06:55:05;;;;;;;3.25;1.42;;;;;;;21.79;38.41;100938.75;5093580;28;20063;-73
2022/09/18 06:57:33;;;;;;;2.40;1.40;;;;;;;21.71;38.00;100937.66;5094648;28;20518;-77
2022/09/18 07:00:00;;;;;;;3.33;1.55;;;;;;;21.69;39.31;100934.25;5093656;28;20047;-73
2022/09/18 07:02:35;;;;;;;2.00;1.60;;;;;;;21.70;40.31;100943.16;5093637;28;20052;-74
2022/09/18 07:05:45;;;;;;;2.13;1.60;;;;;;;21.66;40.71;100947.16;5093881;28;20503;-76
2022/09/18 07:08:25;;;;;;;2.65;1.38;;;;;;;21.73;41.13;100942.88;5078189;28;20056;-72
2022/09/18 07:11:01;;;;;;;4.07;1.77;;;;;;;21.83;41.70;100937.47;5075670;28;20060;-75
2022/09/18 07:13:31;;;;;;;3.00;1.40;;;;;;;21.92;41.93;100950.09;5075547;28;20416;-75
2022/09/18 07:15:58;;;;;;;2.72;1.38;;;;;;;22.02;42.50;100955.44;5074008;28;20044;-74
2022/09/18 07:18:26;;;;;;;2.08;1.30;;;;;;;22.09;42.43;100949.31;5075363;28;20055;-75
2022/09/18 07:20:53;;;;;;;3.22;1.40;;;;;;;22.15;42.88;100951.44;5075353;28;20059;-75
2022/09/18 07:23:32;;;;;;;4.35;1.80;;;;;;;22.22;43.08;100951.72;5091981;28;20055;-75
2022/09/18 07:26:03;;;;;;;5.70;1.52;;;;;;;22.28;43.09;100952.94;5091818;28;20055;-72
2022/09/18 07:28:32;;;;;;;2.55;1.50;;;;;;;22.33;43.35;100962.31;5075253;28;20483;-75
2022/09/18 07:31:10;;;;;;;2.67;1.55;;;;;;;22.38;43.32;100959.19;5075770;28;20048;-74
2022/09/18 07:33:39;;;;;;;2.60;1.27;;;;;;;22.42;43.35;100963.28;5092057;28;20064;-75
2022/09/18 07:36:07;;;;;;;4.10;1.20;;;;;;;22.44;43.30;100966.66;5078267;28;20495;-75
2022/09/18 07:38:36;;;;;;;2.72;1.33;;;;;;;22.48;43.32;100967.22;5093522;28;20052;-75
2022/09/18 07:41:04;;;;;;;3.13;1.40;;;;;;;22.51;43.50;100966.91;5092979;28;20405;-75
2022/09/18 07:43:33;;;;;;;1.48;1.20;;;;;;;22.53;43.55;100967.63;5092768;28;20052;-75
2022/09/18 07:46:01;;;;;;;2.20;1.20;;;;;;;22.55;43.77;100971.88;5094384;28;20051;-75
2022/09/18 07:48:32;;;;;;;2.53;1.25;;;;;;;22.57;43.84;100963.63;5092521;28;20048;-75
2022/09/18 07:51:11;;;;;;;2.40;1.25;;;;;;;22.60;43.91;100974.09;5092879;28;20052;-75
2022/09/18 07:53:41;;;;;;;2.85;1.30;;;;;;;22.60;43.96;100972.25;5092779;28;20048;-75
2022/09/18 07:56:10;;;;;;;3.20;1.30;;;;;;;22.62;43.94;100981.06;5092440;28;20055;-75
2022/09/18 07:58:38;;;;;;;1.88;1.20;;;;;;;22.64;44.09;100976.34;5092641;28;20055;-75
2022/09/18 08:01:32;;;;;;;;;;;;;;;22.65;44.21;100979.94;5094323;28;20051;-75
2022/09/18 08:04:00;;;;;;;2.05;1.20;;;;;;;22.67;44.06;100977.91;5092380;28;19927;-73
2022/09/18 08:06:50;;;;;;;2.67;1.35;;;;;;;22.69;44.24;100970.53;5101026;28;20063;-74
2022/09/18 08:09:33;;;;;;;2.15;1.20;;;;;;;22.69;44.14;100976.78;5092316;28;20403;-74
2022/09/18 08:12:35;;;;;;;2.38;1.40;;;;;;;22.71;44.27;100977.47;5094917;28;20055;-74
2022/09/18 08:15:24;;;;;;;3.13;1.50;;;;;;;22.72;44.19;100975.59;5096780;28;20066;-74
2022/09/18 08:18:19;;;;;;;2.30;1.40;;;;;;;22.75;44.36;100980.72;5096722;28;20059;-74
2022/09/18 08:20:57;;;;;;;2.40;1.67;;;;;;;22.75;44.47;100985.25;5096824;28;20059;-75
2022/09/18 08:23:45;;;;;;;1.70;1.20;;;;;;;22.77;44.42;100988.63;5097459;28;20047;-74
2022/09/18 08:26:14;;;;;;;2.28;1.15;;;;;;;22.79;44.40;100989.34;5097983;28;20369;-74
2022/09/18 08:28:49;;;;;;;1.98;1.05;;;;;;;22.78;44.45;100985.81;5096433;28;20055;-74
2022/09/18 08:31:16;;;;;;;1.55;1.20;;;;;;;22.79;44.58;100990.19;5096630;28;20044;-75
2022/09/18 08:33:44;;;;;;;1.70;1.10;;;;;;;22.80;44.72;100999.16;5095868;28;20056;-75
2022/09/18 08:36:11;;;;;;;2.10;1.38;;;;;;;22.81;44.50;100998.13;5096256;28;20542;-74
2022/09/18 08:38:52;;;;;;;2.47;1.13;;;;;;;22.82;44.77;101010.66;5096498;28;20419;-74
2022/09/18 08:42:06;;;;;;;1.67;1.15;;;;;;;22.82;44.50;101000.72;5098638;28;20055;-74
2022/09/18 08:44:54;;;;;;;1.88;1.10;;;;;;;22.83;44.75;100998.84;5079750;28;20056;-74
2022/09/18 08:47:53;;;;;;;1.63;1.27;;;;;;;22.84;44.79;100997.84;5096501;28;20059;-74
2022/09/18 08:50:28;;;;;;;2.17;1.30;;;;;;;22.85;44.69;101003.09;5095371;28;20411;-74
2022/09/18 08:53:17;;;;;;;1.67;1.13;;;;;;;22.86;44.71;101006.66;5096228;28;20048;-74
2022/09/18 08:56:14;;;;;;;1.65;1.20;;;;;;;22.87;44.81;101005.66;5075510;28;20060;-74
2022/09/18 08:59:02;;;;;;;1.80;1.40;;;;;;;22.87;44.93;101005.66;5058349;28;20378;-74
2022/09/18 09:01:48;;;;;;;5.25;1.30;;;;;;;22.87;44.67;101001.09;5058308;28;20052;-75
2022/09/18 09:04:21;;;;;;;2.53;1.40;;;;;;;22.88;44.60;100999.25;5074195;28;20060;-74
2022/09/18 09:06:48;;;;;;;;;;;;;;;22.89;44.83;101000.97;5058123;28;20059;-74
2022/09/18 09:09:44;;;;;;;1.60;1.20;;;;;;;22.89;44.75;101000.97;5074720;28;20343;-74
2022/09/18 09:12:33;;;;;;;;;;;;;;;22.89;44.81;101003.66;5058390;28;20524;-75
2022/09/18 09:15:03;;;;;;;1.70;1.30;;;;;;;22.90;44.66;100999.94;5074726;28;19920;-74
2022/09/18 09:17:48;;;;;;;1.48;1.02;;;;;;;22.90;44.82;101002.66;5057687;28;20049;-75
2022/09/18 09:20:37;;;;;;;1.60;1.20;;;;;;;22.90;44.85;101002.66;5058020;28;20059;-74
2022/09/18 09:23:49;;;;;;;2.03;1.30;;;;;;;22.90;44.68;101005.34;5057836;28;20056;-74
2022/09/18 09:26:41;;;;;;;2.50;1.17;;;;;;;22.91;44.84;101007.06;5075177;28;20059;-74
2022/09/18 09:29:29;;;;;;;1.95;1.38;;;;;;;22.92;44.89;101009.63;5057394;28;20060;-74
2022/09/18 09:32:27;;;;;;;1.50;1.10;;;;;;;22.92;44.91;101000.66;5058520;28;20055;-74
2022/09/18 09:35:19;;;;;;;1.50;1.10;;;;;;;22.92;44.71;100995.28;5095543;28;20056;-74
2022/09/18 09:38:29;;;;;;;2.15;1.10;;;;;;;22.93;44.67;101002.41;5103506;28;20075;-74
2022/09/18 09:41:06;;;;;;;1.50;1.13;;;;;;;22.93;44.82;101007.78;5095361;28;20415;-74
2022/09/18 09:43:56;;;;;;;2.28;1.48;;;;;;;22.93;44.78;101007.78;5079379;28;20059;-74
2022/09/18 09:46:53;;;;;;;1.80;1.30;;;;;;;22.93;44.80;101000.53;5091385;28;20063;-74
2022/09/18 09:49:26;;;;;;;1.60;1.20;;;;;;;22.94;44.77;101006.78;5095422;28;20409;-74
2022/09/18 09:52:20;;;;;;;1.85;1.10;;;;;;;22.94;44.78;100999.53;5095224;28;20385;-74
2022/09/18 09:54:56;;;;;;;1.80;1.30;;;;;;;22.95;44.76;101003.06;5095403;28;20052;-74
2022/09/18 09:57:50;;;;;;;1.52;1.17;;;;;;;22.96;44.57;101002.06;5095532;28;20047;-74
2022/09/18 10:00:19;;;;;;;1.52;1.10;;;;;;;22.96;44.57;100999.38;5094735;28;20063;-75
2022/09/18 10:03:36;;;;;;;1.85;1.27;;;;;;;22.96;44.58;100999.38;5094935;28;20074;-75
2022/09/18 10:06:17;;;;;;;1.60;1.27;;;;;;;22.97;44.29;100993.00;5095180;28;20415;-74
2022/09/18 10:08:54;;;;;;;1.52;1.23;;;;;;;22.98;44.54;100996.53;5095050;28;20048;-74
2022/09/18 10:11:23;;;;;;;1.67;1.30;;;;;;;22.98;44.64;101000.06;5096019;28;20105;-74
2022/09/18 10:14:28;;;;;;;1.67;1.20;;;;;;;22.99;44.35;100992.81;5094368;28;20048;-74
2022/09/18 10:16:58;;;;;;;1.85;1.27;;;;;;;22.99;44.53;100984.72;5090132;28;20059;-74
2022/09/18 10:19:35;;;;;;;2.10;1.23;;;;;;;23.00;44.11;100995.38;5094372;28;20415;-74
2022/09/18 10:22:06;;;;;;;2.63;1.20;;;;;;;23.00;44.23;100992.66;5094681;28;20051;-74
2022/09/18 10:24:34;;;;;;;1.58;1.17;;;;;;;22.99;43.99;100990.97;5094263;28;20492;-75
2022/09/18 10:27:12;;;;;;;1.80;1.50;;;;;;;23.00;43.97;100984.56;5094587;28;20048;-75
2022/09/18 10:29:41;;;;;;;1.50;1.20;;;;;;;23.00;43.94;100983.72;5094564;28;20044;-74
2022/09/18 10:32:29;;;;;;;2.50;1.35;;;;;;;23.00;44.21;100976.47;5094444;28;20056;-75
2022/09/18 10:34:58;;;;;;;1.63;1.10;;;;;;;23.00;43.53;100979.16;5094083;28;20048;-74
2022/09/18 10:37:26;;;;;;;1.52;1.20;;;;;;;23.00;44.13;100979.16;5076848;28;20044;-74
2022/09/18 10:40:00;;;;;;;1.85;1.20;;;;;;;23.02;44.25;100976.31;5094176;28;20052;-74
2022/09/18 10:42:32;;;;;;;1.77;1.17;;;;;;;23.03;44.03;100981.56;5094202;28;20055;-75
2022/09/18 10:45:25;;;;;;;1.70;1.23;;;;;;;23.02;44.16;100979.03;5094302;28;20044;-75
2022/09/18 10:48:27;;;;;;;1.95;1.30;;;;;;;23.02;44.01;100974.47;5094001;28;20059;-74
2022/09/18 10:50:59;;;;;;;2.70;1.38;;;;;;;23.04;43.90;100979.72;5095013;28;20048;-75
2022/09/18 10:53:41;;;;;;;1.83;1.40;;;;;;;23.04;43.98;100977.84;5094041;28;20396;-75
2022/09/18 10:56:19;;;;;;;2.00;1.30;;;;;;;23.03;43.89;100970.75;5093922;28;20126;-74
2022/09/18 10:58:50;;;;;;;1.98;1.33;;;;;;;23.04;44.07;100967.06;5093901;28;20055;-74
2022/09/18 11:01:18;;;;;;;1.40;1.10;;;;;;;23.05;43.78;100970.59;5093905;28;20056;-75
2022/09/18 11:03:59;;;;;;;2.22;1.02;;;;;;;23.04;44.18;100961.66;5095347;28;20044;-74
2022/09/18 11:06:31;;;;;;;2.08;1.30;;;;;;;23.04;43.75;100968.91;5095263;28;20047;-75
2022/09/18 11:09:09;;;;;;;1.65;1.30;;;;;;;23.04;44.00;100956.25;5093730;28;20066;-75
2022/09/18 11:11:44;;;;;;;1.52;1.10;;;;;;;23.06;44.03;100956.13;5093524;28;20044;-74
2022/09/18 11:14:36;;;;;;;1.80;1.30;;;;;;;23.05;44.07;100960.69;5093438;28;20048;-74
2022/09/18 11:17:31;;;;;;;1.60;1.20;;;;;;;23.06;44.41;100956.97;5093553;28;20055;-74
2022/09/18 11:20:05;;;;;;;1.60;1.10;;;;;;;23.05;44.39;100947.16;5093551;28;20044;-74
2022/09/18 11:22:43;;;;;;;1.50;1.10;;;;;;;23.05;44.19;100947.16;5093577;28;20055;-74
2022/09/18 11:25:40;;;;;;;1.48;1.15;;;;;;;23.05;44.23;100947.16;5095278;28;20055;-74
2022/09/18 11:28:27;;;;;;;1.60;1.08;;;;;;;23.06;44.46;100950.72;5093162;28;20063;-75
2022/09/18 11:31:03;;;;;;;1.90;1.20;;;;;;;23.06;44.04;100951.56;5093625;28;20419;-75
2022/09/18 11:33:40;;;;;;;1.60;1.20;;;;;;;23.06;44.29;100951.56;5092919;28;20060;-75
2022/09/18 11:36:11;;;;;;;2.10;1.20;;;;;;;23.07;44.13;100947.00;5092910;28;20052;-75
2022/09/18 11:38:43;;;;;;;1.58;1.10;;;;;;;23.07;44.09;100947.00;5092908;28;20048;-74
2022/09/18 11:41:19;;;;;;;1.40;1.10;;;;;;;23.07;44.00;100947.00;5093002;28;20044;-75
2022/09/18 11:44:02;;;;;;;1.67;1.20;;;;;;;23.07;44.18;100942.44;5092825;28;20052;-74
2022/09/18 11:46:43;;;;;;;1.42;1.13;;;;;;;23.08;44.21;100946.00;5092658;28;20047;-74
2022/09/18 11:49:29;;;;;;;1.70;1.20;;;;;;;23.07;44.18;100942.44;5076692;28;20052;-74
2022/09/18 11:52:10;;;;;;;2.22;1.30;;;;;;;23.08;44.16;100933.34;5093115;28;20055;-74
2022/09/18 11:54:50;;;;;;;1.70;1.10;;;;;;;23.08;44.40;100929.78;5093808;28;20052;-75
2022/09/18 11:58:11;;;;;;;1.85;1.08;;;;;;;23.08;44.20;100925.25;5093017;28;20400;-74
2022/09/18 12:00:44;;;;;;;2.03;1.60;;;;;;;23.08;44.28;100917.13;5074728;28;20443;-75
2022/09/18 12:03:23;;;;;;;1.63;1.02;;;;;;;23.08;44.10;100921.69;5074351;28;20431;-75
2022/09/18 12:05:56;;;;;;;1.70;1.20;;;;;;;23.08;44.15;100922.53;5074202;28;20463;-74
2022/09/18 12:08:43;;;;;;;1.67;1.30;;;;;;;23.08;43.85;100919.00;5074270;28;20055;-75